createdAt,value
2022-08-18T00:00:01.380Z,22.09
2022-08-18T00:03:20.257Z,22.08
2022-08-18T00:06:35.299Z,22.03
2022-08-18T00:09:42.282Z,21.98
2022-08-18T00:12:48.766Z,21.95
2022-08-18T00:15:54.172Z,21.92
2022-08-18T00:19:00.256Z,21.93
2022-08-18T00:22:05.839Z,21.92
2022-08-18T00:25:15.375Z,21.91
2022-08-18T00:28:23.979Z,21.92
2022-08-18T00:31:29.672Z,21.92
2022-08-18T00:34:35.033Z,21.83
2022-08-18T00:37:40.207Z,21.78
2022-08-18T00:40:48.425Z,21.78
2022-08-18T00:43:58.444Z,21.75
2022-08-18T00:47:04.031Z,21.69
2022-08-18T00:50:11.767Z,21.71
2022-08-18T00:53:23.945Z,21.72
2022-08-18T00:56:35.574Z,21.74
2022-08-18T00:59:46.990Z,21.65
2022-08-18T01:02:57.286Z,21.67
2022-08-18T01:06:07.328Z,21.63
2022-08-18T01:09:12.783Z,21.59
2022-08-18T01:12:43.874Z,21.60
2022-08-18T01:15:45.374Z,21.60
2022-08-18T01:19:08.354Z,21.57
2022-08-18T01:22:20.665Z,21.56
2022-08-18T01:25:44.613Z,21.53
2022-08-18T01:28:50.737Z,21.54
2022-08-18T01:31:56.518Z,21.47
2022-08-18T01:35:01.931Z,21.41
2022-08-18T01:38:07.371Z,21.40
2022-08-18T01:41:28.619Z,21.37
2022-08-18T01:44:35.091Z,21.41
2022-08-18T01:47:58.069Z,21.36
2022-08-18T01:51:07.236Z,21.34
2022-08-18T01:54:15.679Z,21.29
2022-08-18T01:57:22.877Z,21.30
2022-08-18T02:00:29.821Z,21.24
2022-08-18T02:03:38.073Z,21.26
2022-08-18T02:06:47.785Z,21.22
2022-08-18T02:09:53.872Z,21.25
2022-08-18T02:13:00.395Z,21.20
2022-08-18T02:16:06.579Z,21.23
2022-08-18T02:19:12.407Z,21.24
2022-08-18T02:22:21.940Z,21.26
2022-08-18T02:25:27.233Z,21.20
2022-08-18T02:28:33.983Z,21.17
2022-08-18T02:31:39.239Z,21.17
2022-08-18T02:34:45.050Z,21.10
2022-08-18T02:37:50.132Z,21.10
2022-08-18T02:40:57.515Z,21.06
2022-08-18T02:44:05.218Z,21.09
2022-08-18T02:47:10.539Z,21.07
2022-08-18T02:50:16.963Z,21.06
2022-08-18T02:53:23.475Z,21.05
2022-08-18T02:56:40.568Z,21.00
2022-08-18T02:59:48.408Z,20.99
2022-08-18T03:02:54.591Z,20.98
2022-08-18T03:06:00.226Z,20.98
2022-08-18T03:09:06.372Z,20.98
2022-08-18T03:12:12.682Z,20.97
2022-08-18T03:15:19.610Z,20.99
2022-08-18T03:18:24.853Z,20.99
2022-08-18T03:21:32.175Z,20.99
2022-08-18T03:24:37.565Z,21.00
2022-08-18T03:27:42.684Z,21.01
2022-08-18T03:30:49.691Z,20.98
2022-08-18T03:33:55.314Z,21.03
2022-08-18T03:37:04.587Z,21.04
2022-08-18T03:40:11.976Z,21.06
2022-08-18T03:43:25.860Z,21.10
2022-08-18T03:46:45.435Z,21.10
2022-08-18T03:49:50.932Z,21.07
2022-08-18T03:52:59.470Z,21.01
2022-08-18T03:56:09.512Z,20.99
2022-08-18T03:59:18.993Z,21.05
2022-08-18T04:02:25.458Z,21.01
2022-08-18T04:05:32.071Z,20.99
2022-08-18T04:08:37.295Z,21.00
2022-08-18T04:11:44.377Z,20.98
2022-08-18T04:14:51.876Z,20.99
2022-08-18T04:18:04.484Z,21.05
2022-08-18T04:21:13.647Z,21.05
2022-08-18T04:24:18.756Z,21.05
2022-08-18T04:27:24.209Z,21.05
2022-08-18T04:30:29.914Z,21.05
2022-08-18T04:33:36.957Z,21.09
2022-08-18T04:36:43.115Z,21.13
2022-08-18T04:39:48.781Z,21.14
2022-08-18T04:42:54.638Z,21.24
2022-08-18T04:46:02.017Z,21.25
2022-08-18T04:49:10.604Z,21.23
2022-08-18T04:52:40.089Z,21.30
2022-08-18T04:55:49.669Z,21.30
2022-08-18T04:58:56.891Z,21.37
2022-08-18T05:02:05.742Z,21.38
2022-08-18T05:05:12.375Z,21.45
2022-08-18T05:08:17.618Z,21.50
2022-08-18T05:11:25.394Z,21.51
2022-08-18T05:14:31.478Z,21.57
2022-08-18T05:17:39.845Z,21.52
2022-08-18T05:20:47.535Z,21.55
2022-08-18T05:23:54.368Z,21.59
2022-08-18T05:26:59.398Z,21.57
2022-08-18T05:30:06.333Z,21.67
2022-08-18T05:33:16.820Z,21.78
2022-08-18T05:36:38.433Z,21.78
2022-08-18T05:39:55.183Z,21.78
2022-08-18T05:43:02.495Z,21.81
2022-08-18T05:46:08.750Z,21.85
2022-08-18T05:49:15.189Z,21.83
2022-08-18T05:52:31.519Z,21.82
2022-08-18T05:55:58.243Z,21.80
2022-08-18T05:59:04.649Z,21.86
2022-08-18T06:02:16.047Z,21.90
2022-08-18T06:05:25.468Z,21.82
2022-08-18T06:08:39.499Z,21.81
2022-08-18T06:11:44.640Z,21.83
2022-08-18T06:14:50.703Z,21.82
2022-08-18T06:18:30.176Z,21.94
2022-08-18T06:21:43.671Z,22.15
2022-08-18T06:24:57.920Z,22.14
2022-08-18T06:28:08.885Z,22.24
2022-08-18T06:31:20.088Z,22.30
2022-08-18T06:34:33.402Z,22.15
2022-08-18T06:38:00.252Z,22.14
2022-08-18T06:41:40.700Z,22.27
2022-08-18T06:44:44.885Z,22.46
2022-08-18T06:47:59.569Z,22.45
2022-08-18T06:51:07.075Z,22.60
2022-08-18T06:54:29.421Z,22.61
2022-08-18T06:57:39.042Z,22.74
2022-08-18T07:00:56.771Z,22.83
2022-08-18T07:04:02.256Z,23.01
2022-08-18T07:07:39.634Z,23.13
2022-08-18T07:10:48.194Z,23.12
2022-08-18T07:14:15.042Z,23.02
2022-08-18T07:17:42.364Z,23.13
2022-08-18T07:20:53.861Z,23.17
2022-08-18T07:24:23.703Z,23.20
2022-08-18T07:27:46.189Z,23.28
2022-08-18T07:31:15.460Z,23.33
2022-08-18T07:34:25.617Z,23.34
2022-08-18T07:37:36.576Z,23.33
2022-08-18T07:40:48.342Z,23.38
2022-08-18T07:44:07.494Z,23.36
2022-08-18T07:47:21.804Z,23.35
2022-08-18T07:50:57.573Z,23.29
2022-08-18T07:54:00.334Z,23.36
2022-08-18T07:57:13.338Z,23.28
2022-08-18T08:00:57.053Z,23.20
2022-08-18T08:04:00.618Z,23.27
2022-08-18T08:07:25.347Z,23.27
2022-08-18T08:10:36.501Z,23.22
2022-08-18T08:13:56.047Z,23.34
2022-08-18T08:17:11.882Z,23.32
2022-08-18T08:20:28.856Z,23.38
2022-08-18T08:23:49.447Z,23.41
2022-08-18T08:27:01.871Z,23.45
2022-08-18T08:30:12.876Z,23.31
2022-08-18T08:33:24.743Z,23.37
2022-08-18T08:36:34.889Z,23.47
2022-08-18T08:39:45.328Z,23.50
2022-08-18T08:42:56.364Z,23.52
2022-08-18T08:46:09.414Z,23.59
2022-08-18T08:49:28.056Z,23.62
2022-08-18T08:52:42.361Z,23.69
2022-08-18T08:55:50.259Z,23.72
2022-08-18T08:59:00.241Z,23.70
2022-08-18T09:02:46.557Z,23.75
2022-08-18T09:06:01.831Z,23.86
2022-08-18T09:09:32.314Z,23.90
2022-08-18T09:12:53.923Z,23.85
2022-08-18T09:16:14.144Z,23.98
2022-08-18T09:20:04.521Z,24.10
2022-08-18T09:23:14.877Z,24.12
2022-08-18T09:26:41.636Z,24.21
2022-08-18T09:29:53.778Z,24.29
2022-08-18T09:33:18.836Z,24.31
2022-08-18T09:36:43.207Z,24.33
2022-08-18T09:40:17.093Z,24.31
2022-08-18T09:43:36.654Z,24.34
2022-08-18T09:47:00.519Z,24.27
2022-08-18T09:50:56.951Z,24.33
2022-08-18T09:57:44.772Z,24.45
2022-08-18T10:04:31.085Z,24.57
2022-08-18T10:07:43.307Z,24.62
2022-08-18T10:11:00.922Z,24.66
2022-08-18T10:14:35.463Z,24.83
2022-08-18T10:17:52.161Z,24.88
2022-08-18T10:21:12.324Z,24.92
2022-08-18T10:24:36.758Z,24.99
2022-08-18T10:27:52.870Z,25.05
2022-08-18T10:31:09.900Z,25.06
2022-08-18T10:34:51.754Z,25.11
2022-08-18T10:37:59.360Z,25.22
2022-08-18T10:41:15.298Z,25.30
2022-08-18T10:52:22.104Z,25.42
2022-08-18T10:55:48.921Z,25.48
2022-08-18T10:59:16.287Z,25.46
2022-08-18T11:02:45.664Z,25.56
2022-08-18T11:06:04.556Z,25.62
2022-08-18T11:09:11.909Z,25.56
2022-08-18T11:12:54.563Z,25.58
2022-08-18T11:16:10.267Z,25.68
2022-08-18T11:19:20.339Z,25.67
2022-08-18T11:22:32.493Z,25.62
2022-08-18T11:25:42.029Z,25.59
2022-08-18T11:28:48.523Z,25.70
2022-08-18T11:31:59.647Z,25.80
2022-08-18T11:35:16.262Z,25.92
2022-08-18T11:38:23.788Z,26.03
2022-08-18T11:41:48.116Z,26.13
2022-08-18T11:45:06.401Z,26.08
2022-08-18T11:48:25.158Z,26.05
2022-08-18T11:51:35.782Z,26.13
2022-08-18T11:54:50.323Z,26.23
2022-08-18T11:58:00.361Z,26.25
2022-08-18T12:01:09.096Z,26.33
2022-08-18T12:04:24.439Z,26.22
2022-08-18T12:07:33.589Z,26.35
2022-08-18T12:10:38.921Z,26.29
2022-08-18T12:13:51.223Z,26.31
2022-08-18T12:16:59.677Z,26.17
2022-08-18T12:20:08.809Z,26.30
2022-08-18T12:23:17.039Z,26.41
2022-08-18T12:26:38.102Z,26.33
2022-08-18T12:29:44.156Z,26.42
2022-08-18T12:33:00.829Z,26.45
2022-08-18T12:36:15.799Z,26.52
2022-08-18T12:39:21.124Z,26.45
2022-08-18T12:42:28.447Z,26.46
2022-08-18T12:45:38.181Z,26.59
2022-08-18T12:48:45.392Z,26.63
2022-08-18T12:51:54.618Z,26.74
2022-08-18T12:55:01.426Z,26.72
2022-08-18T12:58:08.411Z,26.80
2022-08-18T13:01:13.720Z,26.87
2022-08-18T13:04:26.854Z,26.81
2022-08-18T13:07:32.502Z,26.59
2022-08-18T13:10:45.879Z,26.50
2022-08-18T13:13:56.589Z,26.67
2022-08-18T13:17:02.175Z,26.53
2022-08-18T13:20:13.807Z,26.29
2022-08-18T13:23:24.097Z,26.48
2022-08-18T13:26:32.942Z,26.32
2022-08-18T13:29:38.031Z,26.37
2022-08-18T13:32:58.977Z,26.22
2022-08-18T13:36:09.676Z,26.09
2022-08-18T13:39:16.062Z,25.91
2022-08-18T13:42:26.456Z,25.89
2022-08-18T13:45:35.087Z,25.93
2022-08-18T13:48:42.430Z,25.72
2022-08-18T13:51:52.163Z,25.70
2022-08-18T13:54:57.164Z,25.78
2022-08-18T13:58:17.506Z,25.41
2022-08-18T14:01:45.072Z,25.64
2022-08-18T14:04:54.914Z,25.67
2022-08-18T14:08:01.755Z,25.75
2022-08-18T14:11:07.420Z,25.48
2022-08-18T14:14:13.802Z,25.54
2022-08-18T14:17:22.556Z,25.69
2022-08-18T14:20:48.212Z,25.63
2022-08-18T14:24:14.372Z,25.66
2022-08-18T14:27:20.183Z,25.18
2022-08-18T14:30:26.011Z,25.52
2022-08-18T14:33:49.894Z,25.71
2022-08-18T14:36:57.132Z,25.63
2022-08-18T14:40:04.266Z,25.42
2022-08-18T14:43:10.927Z,25.47
2022-08-18T14:46:16.495Z,25.35
2022-08-18T14:49:28.158Z,25.36
2022-08-18T14:52:34.061Z,25.49
2022-08-18T14:55:40.577Z,25.49
2022-08-18T14:58:45.635Z,25.45
2022-08-18T15:01:51.859Z,25.16
2022-08-18T15:04:58.560Z,24.94
2022-08-18T15:08:05.008Z,25.04
2022-08-18T15:11:12.406Z,24.95
2022-08-18T15:14:20.367Z,24.89
2022-08-18T15:17:33.543Z,24.91
2022-08-18T15:20:57.123Z,25.04
2022-08-18T15:24:20.105Z,25.24
2022-08-18T15:27:42.204Z,25.16
2022-08-18T15:30:51.150Z,25.05
2022-08-18T15:33:57.592Z,25.10
2022-08-18T15:37:09.437Z,24.66
2022-08-18T15:40:21.967Z,24.89
2022-08-18T15:43:45.830Z,24.78
2022-08-18T15:46:53.606Z,24.85
2022-08-18T15:49:58.858Z,24.71
2022-08-18T15:53:07.964Z,24.67
2022-08-18T15:56:21.026Z,24.73
2022-08-18T15:59:38.950Z,24.64
2022-08-18T16:02:51.467Z,24.65
2022-08-18T16:05:57.321Z,24.67
2022-08-18T16:09:04.122Z,24.60
2022-08-18T16:12:10.530Z,24.54
2022-08-18T16:15:21.492Z,24.46
2022-08-18T16:18:27.543Z,24.28
2022-08-18T16:21:32.738Z,24.33
2022-08-18T16:24:37.751Z,24.41
2022-08-18T16:27:42.970Z,24.50
2022-08-18T16:30:50.401Z,24.19
2022-08-18T16:33:56.406Z,23.95
2022-08-18T16:37:01.497Z,24.12
2022-08-18T16:40:08.578Z,24.11
2022-08-18T16:43:14.900Z,23.93
2022-08-18T16:46:25.284Z,24.03
2022-08-18T16:49:30.594Z,23.86
2022-08-18T16:52:36.298Z,23.76
2022-08-18T16:55:43.969Z,23.63
2022-08-18T16:59:18.292Z,23.86
2022-08-18T17:02:43.083Z,23.80
2022-08-18T17:05:48.318Z,23.82
2022-08-18T17:08:53.398Z,23.83
2022-08-18T17:11:58.740Z,23.70
2022-08-18T17:15:06.303Z,23.70
2022-08-18T17:18:14.406Z,23.61
2022-08-18T17:21:25.756Z,23.61
2022-08-18T17:24:32.653Z,23.70
2022-08-18T17:27:39.006Z,23.59
2022-08-18T17:30:50.114Z,23.59
2022-08-18T17:34:05.801Z,23.64
2022-08-18T17:37:16.409Z,23.66
2022-08-18T17:40:29.518Z,23.49
2022-08-18T17:46:49.179Z,23.25
2022-08-18T17:50:28.162Z,23.31
2022-08-18T17:53:36.285Z,23.30
2022-08-18T17:56:46.851Z,23.23
2022-08-18T17:59:59.671Z,23.19
2022-08-18T18:03:06.002Z,23.20
2022-08-18T18:06:25.086Z,23.08
2022-08-18T18:09:32.427Z,23.07
2022-08-18T18:12:39.362Z,23.01
2022-08-18T18:15:49.121Z,22.97
2022-08-18T18:19:03.350Z,22.89
2022-08-18T18:22:21.096Z,22.74
2022-08-18T18:25:34.820Z,22.73
2022-08-18T18:28:40.051Z,22.72
2022-08-18T18:31:58.392Z,22.66
2022-08-18T18:35:15.375Z,22.68
2022-08-18T18:38:30.547Z,22.65
2022-08-18T18:41:39.739Z,22.62
2022-08-18T18:44:54.015Z,22.56
2022-08-18T18:48:06.424Z,22.64
2022-08-18T18:51:19.358Z,22.56
2022-08-18T18:54:59.706Z,22.47
2022-08-18T18:58:17.882Z,22.41
2022-08-18T19:01:32.684Z,22.36
2022-08-18T19:04:40.953Z,22.36
2022-08-18T19:08:04.969Z,22.39
2022-08-18T19:11:19.554Z,22.40
2022-08-18T19:14:29.707Z,22.26
2022-08-18T19:17:43.331Z,22.26
2022-08-18T19:22:01.878Z,22.34
2022-08-18T19:24:21.583Z,22.30
2022-08-18T19:27:44.351Z,22.29
2022-08-18T19:30:52.390Z,22.27
2022-08-18T19:34:01.098Z,22.30
2022-08-18T19:37:30.983Z,22.30
2022-08-18T19:40:46.076Z,22.16
2022-08-18T19:44:05.561Z,22.10
2022-08-18T19:47:18.371Z,22.10
2022-08-18T19:50:36.519Z,22.01
2022-08-18T19:54:05.623Z,22.03
2022-08-18T19:57:34.454Z,21.92
2022-08-18T20:00:48.961Z,21.91
2022-08-18T20:04:13.414Z,21.81
2022-08-18T20:07:56.319Z,21.93
2022-08-18T20:11:41.981Z,21.88
2022-08-18T20:15:01.509Z,21.77
2022-08-18T20:18:23.194Z,21.74
2022-08-18T20:21:49.514Z,21.68
2022-08-18T20:24:57.307Z,21.75
2022-08-18T20:28:35.520Z,21.63
2022-08-18T20:31:59.788Z,21.60
2022-08-18T20:35:19.329Z,21.68
2022-08-18T20:38:35.026Z,21.66
2022-08-18T20:41:47.215Z,21.62
2022-08-18T20:45:00.278Z,21.72
2022-08-18T20:48:23.733Z,21.72
2022-08-18T20:51:33.637Z,21.68
2022-08-18T20:54:58.245Z,21.73
2022-08-18T20:58:08.302Z,21.83
2022-08-18T21:01:15.567Z,21.78
2022-08-18T21:04:42.972Z,21.82
2022-08-18T21:08:04.701Z,21.85
2022-08-18T21:11:27.180Z,21.71
2022-08-18T21:14:37.554Z,21.78
2022-08-18T21:17:43.642Z,21.83
2022-08-18T21:20:49.722Z,21.67
2022-08-18T21:23:59.614Z,21.61
2022-08-18T21:27:08.538Z,21.72
2022-08-18T21:30:20.239Z,21.63
2022-08-18T21:33:26.014Z,21.64
2022-08-18T21:36:32.299Z,21.69
2022-08-18T21:39:50.920Z,21.71
2022-08-18T21:42:56.319Z,21.60
2022-08-18T21:46:01.701Z,21.56
2022-08-18T21:49:07.610Z,21.66
2022-08-18T21:52:24.103Z,21.50
2022-08-18T21:55:37.212Z,21.53
2022-08-18T21:58:45.292Z,21.46
2022-08-18T22:01:54.768Z,21.48
2022-08-18T22:05:00.117Z,21.55
2022-08-18T22:08:05.339Z,21.44
2022-08-18T22:12:00.798Z,21.59
2022-08-18T22:15:11.075Z,21.60
2022-08-18T22:18:36.586Z,21.53
2022-08-18T22:21:46.603Z,21.52
2022-08-18T22:24:55.983Z,21.44
2022-08-18T22:28:03.255Z,21.49
2022-08-18T22:31:08.651Z,21.35
2022-08-18T22:34:17.684Z,21.33
2022-08-18T22:37:38.462Z,21.31
2022-08-18T22:40:43.495Z,21.27
2022-08-18T22:43:55.086Z,21.27
2022-08-18T22:47:01.169Z,21.17
2022-08-18T22:50:07.674Z,21.22
2022-08-18T22:53:16.005Z,21.11
2022-08-18T22:56:21.888Z,21.20
2022-08-18T22:59:42.697Z,21.12
2022-08-18T23:02:48.264Z,21.09
2022-08-18T23:05:54.731Z,21.15
2022-08-18T23:09:01.415Z,21.18
2022-08-18T23:12:13.565Z,21.25
2022-08-18T23:15:20.890Z,21.07
2022-08-18T23:18:27.430Z,21.03
2022-08-18T23:21:34.480Z,21.11
2022-08-18T23:24:41.952Z,21.23
2022-08-18T23:27:47.158Z,21.11
2022-08-18T23:30:55.911Z,21.01
2022-08-18T23:34:01.926Z,20.99
2022-08-18T23:37:09.707Z,21.03
2022-08-18T23:40:16.840Z,21.05
2022-08-18T23:43:23.285Z,21.05
2022-08-18T23:46:31.984Z,21.10
2022-08-18T23:49:38.327Z,21.18
2022-08-18T23:52:43.761Z,21.12
2022-08-18T23:55:52.806Z,20.89
2022-08-18T23:58:58.600Z,21.08
